May 27, 2022

Time Code Weather Temp. Visibility Ceiling Wind METAR/SPECI
8:20 pm
M
61 °F 3⅛ mi - 310° 310° 6 kt METAR ETHL 271820Z AUTO 31006KT 5000 // ////// 16/08 Q1021 ///
7:20 pm
M
61 °F 3⅛ mi - 320° 320° 7 kt METAR ETHL 271720Z AUTO 32007KT 5000 // ////// 16/09 Q1020 ///
6:20 pm
V
63 °F 6¼ mi+ 6,000 ft 310° 310° 9 - 19 kt METAR ETHL 271620Z 31009G19KT 9999 FEW040 BKN060 17/08 Q1020 BLU
5:20 pm
V
66 °F 6¼ mi+ - 310° 310° 10 - 23 kt METAR ETHL 271520Z 31010G23KT 9999 FEW040 SCT060 19/09 Q1020 BLU+
4:20 pm
V
68 °F 6¼ mi+ - 300° 300° 9 kt METAR ETHL 271420Z 30009KT 9999 FEW045 SCT250 20/09 Q1020 BLU+
3:20 pm
V
68 °F 6¼ mi+ - 280° 280° 11 kt METAR ETHL 271320Z 28011KT 9999 FEW045 SCT250 20/09 Q1020 BLU+
2:20 pm
V
68 °F 6¼ mi+ - 280° 280° 9 kt METAR ETHL 271220Z 28009KT 9999 FEW040 SCT250 20/11 Q1021 BLU+
1:20 pm
V
68 °F 6¼ mi+ - 290° 290° 6 kt METAR ETHL 271120Z 29006KT 9999 FEW040 SCT250 20/11 Q1021 BLU+
12:20 pm
V
66 °F 6¼ mi+ - 300° 300° 6 kt METAR ETHL 271020Z 30006KT 9999 SCT040 SCT250 19/11 Q1022 BLU+
11:20 am
V
66 °F 6¼ mi+ - 250° 250° 11 kt METAR ETHL 270920Z 25011KT 9999 SCT029 SCT260 19/10 Q1022 BLU+
10:20 am
V
63 °F 6¼ mi+ - 270° 270° 11 kt METAR ETHL 270820Z 27011KT 9999 SCT023 SCT260 17/10 Q1022 BLU+
9:20 am
V
61 °F 6¼ mi+ - 270° 270° 13 kt METAR ETHL 270720Z 27013KT 9999 FEW050 SCT260 16/10 Q1023 BLU+
8:20 am
V
57 °F 6¼ mi+ - 250° 250° 8 kt METAR ETHL 270620Z 25008KT 9999 FEW050 SCT260 14/10 Q1023 BLU+
7:20 am
V
54 °F 6¼ mi+ - 250° 250° 5 kt METAR ETHL 270520Z 25005KT 9999 FEW050 SCT260 12/09 Q1023 BLU+
6:40 am
V
54 °F 6¼ mi+ - 210° 210° 5 kt METAR ETHL 270440Z 21005KT 9999 FEW050 SCT260 12/09 Q1023 BLU+
6:20 am
M
52 °F 4⅜ mi - 220° 220° 5 kt METAR ETHL 270420Z 22005KT 7000 FEW080 SCT260 11/09 Q1023 WHT
5:20 am
M
52 °F 4⅜ mi - 210° 210° 4 kt METAR ETHL 270320Z AUTO 21004KT 7000 // ////// 11/09 Q1023 ///
4:20 am
V
52 °F 5 mi - 220° 220° 3 kt METAR ETHL 270220Z AUTO 22003KT 8000 // ////// 11/09 Q1023 ///
3:20 am
V
50 °F 5 mi - 210° 210° 3 kt METAR ETHL 270120Z AUTO 21003KT 8000 // ////// 10/08 Q1023 ///
2:20 am
M
50 °F 4⅜ mi - 260° 260° 2 kt METAR ETHL 270020Z AUTO 26002KT 7000 // ////// 10/08 Q1023 ///
1:20 am
M
54 °F 4⅜ mi - 210° 210° 2 kt METAR ETHL 262320Z AUTO 21002KT 7000 // ////// 12/08 Q1024 ///
12:20 am
M
54 °F 4⅜ mi - 190° 190° 4 kt METAR ETHL 262220Z AUTO 19004KT 7000 // ////// 12/09 Q1024 ///

May 26, 2022

Time Code Weather Temp. Visibility Ceiling Wind METAR/SPECI
11:20 pm
V
55 °F 5 mi - 250° 250° 2 kt METAR ETHL 262120Z AUTO 25002KT 8000 // ////// 13/09 Q1024 ///
10:20 pm
M
57 °F 4⅜ mi - Var 000° 0 kt METAR ETHL 262020Z AUTO 00000KT 7000 // ////// 14/08 Q1024 ///
9:20 pm
M
61 °F 4⅜ mi - 350° 350° 1 kt METAR ETHL 261920Z AUTO 35001KT 7000 // ////// 16/09 Q1023 ///
8:20 pm
M
63 °F 4⅜ mi - 330° 330° 3 kt METAR ETHL 261820Z AUTO 33003KT 7000 // ////// 17/08 Q1023 ///
7:20 pm
V
64 °F 5 mi - 290° 290° 5 kt METAR ETHL 261720Z AUTO 29005KT 8000 // ////// 18/08 Q1023 ///
6:20 pm
V
66 °F 5 mi - 330° 330° 4 kt METAR ETHL 261620Z AUTO 33004KT 8000 // ////// 19/08 Q1023 ///
5:20 pm
M
66 °F 3¾ mi - 280° 280° 5 kt METAR ETHL 261520Z AUTO 28005KT 6000 // ////// 19/08 Q1023 ///
4:20 pm
M
68 °F 3¾ mi - 290° 290° 6 kt METAR ETHL 261420Z AUTO 29006KT 6000 // ////// 20/08 Q1023 ///
3:20 pm
V
66 °F 5 mi - 270° 270° 9 kt METAR ETHL 261320Z AUTO 27009KT 8000 // ////// 19/08 Q1024 ///
2:20 pm
M
66 °F 4⅜ mi - 270° 270° 8 kt METAR ETHL 261220Z AUTO 27008KT 7000 // ////// 19/07 Q1024 ///
1:20 pm
V
64 °F 5 mi - 280° 280° 6 kt METAR ETHL 261120Z AUTO 28006KT 8000 // ////// 18/08 Q1024 ///
12:20 pm
V
64 °F 5 mi - 270° 270° 6 kt METAR ETHL 261020Z AUTO 27006KT 8000 // ////// 18/07 Q1024 ///
11:20 am
V
64 °F 5 mi - 270° 270° 9 kt METAR ETHL 260920Z AUTO 27009KT 8000 // ////// 18/08 Q1024 ///
10:20 am
V
61 °F 5 mi - 240° 240° 8 kt METAR ETHL 260820Z AUTO 24008KT 8000 // ////// 16/07 Q1024 ///
9:20 am
V
61 °F 5 mi - 260° 260° 7 kt METAR ETHL 260720Z AUTO 26007KT 8000 // ////// 16/07 Q1024 ///
8:20 am
V
55 °F 5 mi - 220° 220° 4 kt METAR ETHL 260620Z AUTO 22004KT 8000 // ////// 13/09 Q1024 ///
7:20 am
V
54 °F 5⅝ mi - 230° 230° 4 kt METAR ETHL 260520Z AUTO 23004KT 9000 // ////// 12/09 Q1023 ///
6:20 am
V
52 °F 5⅝ mi - 230° 230° 4 kt METAR ETHL 260420Z AUTO 23004KT 9000 // ////// 11/08 Q1023 ///
5:20 am
V
50 °F 5 mi - 220° 220° 3 kt METAR ETHL 260320Z AUTO 22003KT 8000 // ////// 10/08 Q1022 ///
4:20 am
V
50 °F 5⅝ mi - 240° 240° 3 kt METAR ETHL 260220Z AUTO 24003KT 9000 // ////// 10/08 Q1022 ///
3:20 am
V
52 °F 5⅝ mi - 220° 220° 3 kt METAR ETHL 260120Z AUTO 22003KT 9000 // ////// 11/08 Q1022 ///
2:20 am
V
52 °F 5⅝ mi - 230° 230° 3 kt METAR ETHL 260020Z AUTO 23003KT 9000 // ////// 11/09 Q1022 ///
1:20 am
V
52 °F 5 mi - 230° 230° 2 kt METAR ETHL 252320Z AUTO 23002KT 8000 // ////// 11/09 Q1022 ///
12:20 am
V
54 °F 5⅝ mi - 230° 230° 2 kt METAR ETHL 252220Z AUTO 23002KT 9000 // ////// 12/09 Q1021 ///

May 25, 2022

Time Code Weather Temp. Visibility Ceiling Wind METAR/SPECI
11:20 pm
V
55 °F 6¼ mi+ 30,000 ft 250° 250° 1 kt METAR ETHL 252120Z 25001KT 9999 FEW060 BKN300 13/10 Q1021 BLU+
10:20 pm
V
59 °F 6¼ mi+ - 310° 310° 1 kt METAR ETHL 252020Z 31001KT 9999 FEW060 SCT300 15/10 Q1020 BLU+
9:20 pm
V
61 °F 6¼ mi+ - Var Var 2 kt METAR ETHL 251920Z VRB02KT 9999 FEW040 SCT060 16/10 Q1019 BLU+
8:20 pm
V
63 °F 6¼ mi+ - 210° 210° 2 kt METAR ETHL 251820Z 21002KT 9999 FEW040 SCT060 17/10 Q1019 BLU+
7:20 pm
V
63 °F 6¼ mi+ - 240° 240° 4 kt METAR ETHL 251720Z 24004KT 9999 SCT040 SCT070 17/09 Q1018 BLU+
6:20 pm
V
63 °F 6¼ mi+ - 230° 230° 5 kt METAR ETHL 251620Z 23005KT 9999 SCT040 17/09 Q1018 BLU+
5:20 pm
V
66 °F 6¼ mi+ - 190° 190° 3 kt METAR ETHL 251520Z 19003KT 9999 SCT040 19/08 Q1018 BLU+
5:00 pm
V
66 °F 6¼ mi+ - 230° 230° 5 kt METAR ETHL 251500Z 23005KT 9999 SCT040 19/07 Q1018 BLU+FCST CNL
Older data

Download our app

Easy access to all aviation weather on your mobile phone and tablet.
With many features not available on the website, like offline support and a personal airport list.

We and third parties follow your internet behavior on our website with cookies. If you continue, we assume you agree with our cookie policy. Learn more